createdAt,value
2016-10-01T00:00:55.832Z,95.46
2016-10-01T00:01:55.876Z,95.98
2016-10-01T00:02:55.802Z,95.89
2016-10-01T00:03:55.778Z,95.31
2016-10-01T00:04:55.122Z,95.79
2016-10-01T00:05:55.808Z,95.98
2016-10-01T00:06:55.124Z,95.22
2016-10-01T00:07:55.578Z,95.51
2016-10-01T00:08:55.052Z,95.61
2016-10-01T00:09:55.693Z,95.41
2016-10-01T00:10:55.678Z,95.46
2016-10-01T00:11:54.998Z,95.89
2016-10-01T00:12:55.630Z,95.41
2016-10-01T00:13:54.965Z,95.41
2016-10-01T00:14:55.587Z,95.51
2016-10-01T00:15:55.615Z,95.61
2016-10-01T00:16:54.908Z,95.03
2016-10-01T00:17:55.550Z,95.03
2016-10-01T00:18:55.532Z,95.51
2016-10-01T00:19:55.436Z,95.31
2016-10-01T00:20:55.499Z,95.61
2016-10-01T00:21:55.480Z,94.93
2016-10-01T00:22:55.467Z,94.93
2016-10-01T00:23:55.485Z,94.55
2016-10-01T00:24:54.782Z,95.12
2016-10-01T00:25:55.418Z,95.31
2016-10-01T00:26:55.399Z,95.31
2016-10-01T00:27:55.261Z,95.51
2016-10-01T00:28:54.949Z,95.51
2016-10-01T00:29:55.338Z,95.7
2016-10-01T00:30:55.337Z,95.7
2016-10-01T00:31:54.662Z,96.08
2016-10-01T00:32:54.640Z,96.08
2016-10-01T00:33:54.629Z,96.18
2016-10-01T00:34:55.267Z,96.08
2016-10-01T00:35:55.258Z,95.89
2016-10-01T00:36:54.570Z,96.37
2016-10-01T00:37:55.212Z,96.08
2016-10-01T00:38:55.183Z,96.08
2016-10-01T00:39:55.180Z,96.27
2016-10-01T00:40:55.178Z,96.27
2016-10-01T00:41:54.487Z,96.75
2016-10-01T00:42:55.140Z,96.56
2016-10-01T00:43:55.108Z,96.66
2016-10-01T00:44:55.079Z,96.75
2016-10-01T00:45:54.356Z,96.84
2016-10-01T00:46:55.060Z,96.56
2016-10-01T00:47:55.036Z,96.27
2016-10-01T00:48:55.028Z,96.56
2016-10-01T00:49:55.025Z,95.98
2016-10-01T00:50:54.339Z,95.98
2016-10-01T00:51:54.976Z,96.47
2016-10-01T00:52:54.957Z,97.04
2016-10-01T00:53:54.951Z,98.14
2016-10-01T00:54:54.910Z,98.9
2016-10-01T00:55:54.761Z,99.19
2016-10-01T00:56:54.896Z,98.9
2016-10-01T00:57:54.218Z,98.81
2016-10-01T00:58:54.128Z,98.14
2016-10-01T00:59:54.424Z,98.04
2016-10-01T01:00:54.180Z,98.14
2016-10-01T01:01:54.168Z,98.52
2016-10-01T01:02:54.137Z,99.57
2016-10-01T01:03:54.125Z,99.38
2016-10-01T01:04:54.106Z,99.19
2016-10-01T01:05:54.082Z,99.57
2016-10-01T01:06:54.711Z,99.76
2016-10-01T01:07:53.988Z,99.67
2016-10-01T01:08:54.697Z,99.99
2016-10-01T01:09:54.679Z,99.99
2016-10-01T01:10:54.650Z,99.99
2016-10-01T01:11:54.626Z,99.99
2016-10-01T01:12:54.599Z,99.9
2016-10-01T01:13:54.603Z,99.67
2016-10-01T01:14:54.582Z,99.57
2016-10-01T01:15:54.163Z,99.48
2016-10-01T01:16:54.552Z,99
2016-10-01T01:17:53.871Z,99.19
2016-10-01T01:18:54.512Z,99
2016-10-01T01:19:54.092Z,99.57
2016-10-01T01:20:54.499Z,99.76
2016-10-01T01:21:54.453Z,99.99
2016-10-01T01:22:54.436Z,99.99
2016-10-01T01:23:53.789Z,99.99
2016-10-01T01:24:54.447Z,99.99
2016-10-01T01:25:54.403Z,99.99
2016-10-01T01:26:54.395Z,99.99
2016-10-01T01:27:53.700Z,99.99
2016-10-01T01:28:54.388Z,99.99
2016-10-01T01:29:53.686Z,99.99
2016-10-01T01:30:53.676Z,99.99
2016-10-01T01:31:54.293Z,99.99
2016-10-01T01:32:53.636Z,99.99
2016-10-01T01:33:53.600Z,99.99
2016-10-01T01:34:54.255Z,99.99
2016-10-01T01:35:53.568Z,99.99
2016-10-01T01:36:54.221Z,99.99
2016-10-01T01:37:54.199Z,99.99
2016-10-01T01:38:54.176Z,99.99
2016-10-01T01:39:53.508Z,99.99
2016-10-01T01:40:54.086Z,99.99
2016-10-01T01:41:53.703Z,99.99
2016-10-01T01:42:54.091Z,99.99
2016-10-01T01:43:54.077Z,99.99
2016-10-01T01:44:54.107Z,99.99
2016-10-01T01:45:54.066Z,99.99
2016-10-01T01:46:54.061Z,99.99
2016-10-01T01:47:54.012Z,99.99
2016-10-01T01:48:53.379Z,99.99
2016-10-01T01:49:53.246Z,99.99
2016-10-01T01:50:54.001Z,99.99
2016-10-01T01:51:53.219Z,99.99
2016-10-01T01:52:53.329Z,99.99
2016-10-01T01:53:53.916Z,99.99
2016-10-01T01:54:53.223Z,99.99
2016-10-01T01:55:53.138Z,99.99
2016-10-01T01:56:53.865Z,99.99
2016-10-01T01:57:53.827Z,99.99
2016-10-01T01:58:53.831Z,99.99
2016-10-01T01:59:53.796Z,99.99
2016-10-01T02:00:53.642Z,99.99
2016-10-01T02:01:53.115Z,99.99
2016-10-01T02:02:53.606Z,99.99
2016-10-01T02:03:53.728Z,99.99
2016-10-01T02:04:53.728Z,99.99
2016-10-01T02:05:53.698Z,99.99
2016-10-01T02:06:53.264Z,99.99
2016-10-01T02:07:53.657Z,99.99
2016-10-01T02:08:53.667Z,99.99
2016-10-01T02:09:53.495Z,99.99
2016-10-01T02:10:53.606Z,99.99
2016-10-01T02:11:53.589Z,99.99
2016-10-01T02:12:53.590Z,99.99
2016-10-01T02:13:53.155Z,99.99
2016-10-01T02:14:52.894Z,99.99
2016-10-01T02:15:53.518Z,99.99
2016-10-01T02:16:53.496Z,99.99
2016-10-01T02:17:53.485Z,99.99
2016-10-01T02:18:53.528Z,99.99
2016-10-01T02:19:53.445Z,99.99
2016-10-01T02:20:52.788Z,99.99
2016-10-01T02:21:52.774Z,99.99
2016-10-01T02:22:53.488Z,99.99
2016-10-01T02:23:53.399Z,99.99
2016-10-01T02:24:52.729Z,99.99
2016-10-01T02:25:53.354Z,99.99
2016-10-01T02:26:52.918Z,99.99
2016-10-01T02:27:53.325Z,99.99
2016-10-01T02:28:53.283Z,99.99
2016-10-01T02:29:53.280Z,99.99
2016-10-01T02:30:52.605Z,99.99
2016-10-01T02:31:52.585Z,99.99
2016-10-01T02:32:53.239Z,99.99
2016-10-01T02:33:53.219Z,99.99
2016-10-01T02:34:53.207Z,99.99
2016-10-01T02:35:53.174Z,99.99
2016-10-01T02:36:53.189Z,99.99
2016-10-01T02:37:53.139Z,99.99
2016-10-01T02:38:53.136Z,99.99
2016-10-01T02:39:53.096Z,99.99
2016-10-01T02:40:52.946Z,99.99
2016-10-01T02:41:52.427Z,99.99
2016-10-01T02:42:53.046Z,99.99
2016-10-01T02:43:53.040Z,99.99
2016-10-01T02:44:53.077Z,99.99
2016-10-01T02:45:52.585Z,99.99
2016-10-01T02:46:52.837Z,99.99
2016-10-01T02:47:52.313Z,99.99
2016-10-01T02:48:52.290Z,99.99
2016-10-01T02:49:52.929Z,99.99
2016-10-01T02:50:52.504Z,99.99
2016-10-01T02:51:52.881Z,99.99
2016-10-01T02:52:52.234Z,99.99
2016-10-01T02:53:52.887Z,99.99
2016-10-01T02:54:52.237Z,99.99
2016-10-01T02:55:52.179Z,99.99
2016-10-01T02:56:52.444Z,99.99
2016-10-01T02:57:52.785Z,99.99
2016-10-01T02:58:52.765Z,99.99
2016-10-01T02:59:52.102Z,99.99
2016-10-01T03:00:52.735Z,99.99
2016-10-01T03:01:52.724Z,99.99
2016-10-01T03:02:52.287Z,99.99
2016-10-01T03:03:52.688Z,99.99
2016-10-01T03:04:51.937Z,99.99
2016-10-01T03:05:52.661Z,99.99
2016-10-01T03:06:52.227Z,99.99
2016-10-01T03:07:52.621Z,99.99
2016-10-01T03:08:52.582Z,99.99
2016-10-01T03:09:52.176Z,99.99
2016-10-01T03:10:51.908Z,99.99
2016-10-01T03:11:52.565Z,99.99
2016-10-01T03:12:52.129Z,99.99
2016-10-01T03:13:52.096Z,99.99
2016-10-01T03:14:51.838Z,99.99
2016-10-01T03:15:52.481Z,99.99
2016-10-01T03:16:52.478Z,99.99
2016-10-01T03:17:51.808Z,99.99
2016-10-01T03:18:51.783Z,99.99
2016-10-01T03:19:51.677Z,99.99
2016-10-01T03:20:52.388Z,99.99
2016-10-01T03:21:52.364Z,99.99
2016-10-01T03:22:52.231Z,99.99
2016-10-01T03:23:51.697Z,99.99
2016-10-01T03:24:51.677Z,99.99
2016-10-01T03:25:51.576Z,99.99
2016-10-01T03:26:52.277Z,99.99
2016-10-01T03:27:52.257Z,99.99
2016-10-01T03:28:51.606Z,99.99
2016-10-01T03:29:51.828Z,99.99
2016-10-01T03:30:51.480Z,99.99
2016-10-01T03:31:52.214Z,99.99
2016-10-01T03:32:52.039Z,99.99
2016-10-01T03:33:51.518Z,99.99
2016-10-01T03:34:51.427Z,99.99
2016-10-01T03:35:52.138Z,99.99
2016-10-01T03:36:52.116Z,99.99
2016-10-01T03:37:52.093Z,99.99
2016-10-01T03:38:51.350Z,99.99
2016-10-01T03:39:51.337Z,99.99
2016-10-01T03:40:52.066Z,99.99
2016-10-01T03:41:52.040Z,99.99
2016-10-01T03:42:52.008Z,99.99
2016-10-01T03:43:51.849Z,99.99
2016-10-01T03:44:51.320Z,99.99
2016-10-01T03:45:51.376Z,99.99
2016-10-01T03:46:51.866Z,99.99
2016-10-01T03:47:51.287Z,99.99
2016-10-01T03:48:51.907Z,99.99
2016-10-01T03:49:51.896Z,99.99
2016-10-01T03:50:51.479Z,99.99
2016-10-01T03:51:51.453Z,99.99
2016-10-01T03:52:51.846Z,99.99
2016-10-01T03:53:51.185Z,99.99
2016-10-01T03:54:51.812Z,99.99
2016-10-01T03:55:51.799Z,99.99
2016-10-01T03:56:51.806Z,99.99
2016-10-01T03:57:51.757Z,99.99
2016-10-01T03:58:51.737Z,99.99
2016-10-01T03:59:51.129Z,99.99
2016-10-01T04:00:51.054Z,99.99
2016-10-01T04:01:51.277Z,99.99
2016-10-01T04:02:51.676Z,99.99
2016-10-01T04:03:51.649Z,99.99
2016-10-01T04:04:51.632Z,99.99
2016-10-01T04:05:50.888Z,99.99
2016-10-01T04:06:50.956Z,99.99
2016-10-01T04:07:50.934Z,99.99
2016-10-01T04:08:51.578Z,99.99
2016-10-01T04:09:51.549Z,99.99
2016-10-01T04:10:51.537Z,99.99
2016-10-01T04:11:51.377Z,99.99
2016-10-01T04:12:51.513Z,99.99
2016-10-01T04:13:50.838Z,99.99
2016-10-01T04:14:50.809Z,99.99
2016-10-01T04:15:51.437Z,99.99
2016-10-01T04:16:51.456Z,99.99
2016-10-01T04:17:50.764Z,99.99
2016-10-01T04:18:50.740Z,99.99
2016-10-01T04:19:50.649Z,99.99
2016-10-01T04:20:51.355Z,99.99
2016-10-01T04:21:50.707Z,99.99
2016-10-01T04:22:51.339Z,99.99
2016-10-01T04:23:50.654Z,99.99
2016-10-01T04:24:51.316Z,99.99
2016-10-01T04:25:50.859Z,99.99
2016-10-01T04:26:51.267Z,99.99
2016-10-01T04:27:50.518Z,99.99
2016-10-01T04:28:51.088Z,99.99
2016-10-01T04:29:51.221Z,99.99
2016-10-01T04:30:51.195Z,99.99
2016-10-01T04:31:51.163Z,99.99
2016-10-01T04:32:51.178Z,99.99
2016-10-01T04:33:50.730Z,99.99
2016-10-01T04:34:51.112Z,99.99
2016-10-01T04:35:50.705Z,99.99
2016-10-01T04:36:50.359Z,99.99
2016-10-01T04:37:51.069Z,99.99
2016-10-01T04:38:50.929Z,99.99
2016-10-01T04:39:51.039Z,99.99
2016-10-01T04:40:51.016Z,99.99
2016-10-01T04:41:50.600Z,99.99
2016-10-01T04:42:50.579Z,99.99
2016-10-01T04:43:50.970Z,99.99
2016-10-01T04:44:50.299Z,99.99
2016-10-01T04:45:50.289Z,99.99
2016-10-01T04:46:50.907Z,99.99
2016-10-01T04:47:50.896Z,99.99
2016-10-01T04:48:50.880Z,99.99
2016-10-01T04:49:50.726Z,99.99
2016-10-01T04:50:50.435Z,99.99
2016-10-01T04:51:50.839Z,99.99
2016-10-01T04:52:50.168Z,99.99
2016-10-01T04:53:50.809Z,99.99
2016-10-01T04:54:50.776Z,99.99
2016-10-01T04:55:50.787Z,99.99
2016-10-01T04:56:50.756Z,99.99
2016-10-01T04:57:50.729Z,99.99
2016-10-01T04:58:50.714Z,99.99
2016-10-01T04:59:50.697Z,99.99
2016-10-01T05:00:50.035Z,99.99
2016-10-01T05:01:50.655Z,99.99
2016-10-01T05:02:49.997Z,99.99
2016-10-01T05:03:50.038Z,99.99
2016-10-01T05:04:50.614Z,99.99
2016-10-01T05:05:50.606Z,99.99
2016-10-01T05:06:50.575Z,99.99
2016-10-01T05:07:49.924Z,99.99
2016-10-01T05:08:49.890Z,99.99
2016-10-01T05:09:50.516Z,99.99
2016-10-01T05:10:49.775Z,99.99
2016-10-01T05:11:50.497Z,99.99
2016-10-01T05:12:50.454Z,99.99
2016-10-01T05:13:50.459Z,99.99
2016-10-01T05:14:50.028Z,99.99
2016-10-01T05:15:50.415Z,99.99
2016-10-01T05:16:49.997Z,99.99
2016-10-01T05:17:50.086Z,99.99
2016-10-01T05:18:49.726Z,99.99
2016-10-01T05:19:50.366Z,99.99
2016-10-01T05:20:50.332Z,99.99
2016-10-01T05:21:49.931Z,99.99
2016-10-01T05:22:49.889Z,99.99
2016-10-01T05:23:50.288Z,99.99
2016-10-01T05:24:50.282Z,99.99
2016-10-01T05:25:50.253Z,99.99
2016-10-01T05:26:50.239Z,99.99
2016-10-01T05:27:50.212Z,99.99
2016-10-01T05:28:49.552Z,99.99
2016-10-01T05:29:50.169Z,99.99
2016-10-01T05:30:49.515Z,99.99
2016-10-01T05:31:49.488Z,99.99
2016-10-01T05:32:50.128Z,99.99
2016-10-01T05:33:50.139Z,99.99
2016-10-01T05:34:49.443Z,99.99
2016-10-01T05:35:50.125Z,99.99
2016-10-01T05:36:49.659Z,99.99
2016-10-01T05:37:50.063Z,99.99
2016-10-01T05:38:50.025Z,99.99
2016-10-01T05:39:50.195Z,99.99
2016-10-01T05:40:49.345Z,99.99
2016-10-01T05:41:49.667Z,99.99
2016-10-01T05:42:49.232Z,99.99
2016-10-01T05:43:49.968Z,99.99
2016-10-01T05:44:49.919Z,99.99
2016-10-01T05:45:49.277Z,99.99
2016-10-01T05:46:49.897Z,99.99
2016-10-01T05:47:49.250Z,99.99
2016-10-01T05:48:49.218Z,99.99
2016-10-01T05:49:49.197Z,99.99
2016-10-01T05:50:49.807Z,99.99
2016-10-01T05:51:49.809Z,99.99
2016-10-01T05:52:49.798Z,99.99
2016-10-01T05:53:49.362Z,99.99
2016-10-01T05:54:49.115Z,99.99
2016-10-01T05:55:49.737Z,99.99
2016-10-01T05:56:49.065Z,99.99
2016-10-01T05:57:49.689Z,99.99
2016-10-01T05:58:49.032Z,99.99
2016-10-01T05:59:49.686Z,99.99
2016-10-01T06:00:49.239Z,99.99
2016-10-01T06:01:49.729Z,99.99
2016-10-01T06:02:49.607Z,99.99
2016-10-01T06:03:49.598Z,99.99
2016-10-01T06:04:49.178Z,99.99
2016-10-01T06:05:49.598Z,99.99
2016-10-01T06:06:48.918Z,99.99
2016-10-01T06:07:49.533Z,99.99
2016-10-01T06:08:48.869Z,99.99
2016-10-01T06:09:49.514Z,99.99
2016-10-01T06:10:49.481Z,99.99
2016-10-01T06:11:48.808Z,99.99
2016-10-01T06:12:49.035Z,99.99
2016-10-01T06:13:49.472Z,99.99
2016-10-01T06:14:49.435Z,99.99
2016-10-01T06:15:49.397Z,99.99
2016-10-01T06:16:49.367Z,99.99
2016-10-01T06:17:48.717Z,99.99
2016-10-01T06:18:49.365Z,99.99
2016-10-01T06:19:49.347Z,99.99
2016-10-01T06:20:48.668Z,99.99
2016-10-01T06:21:48.641Z,99.99
2016-10-01T06:22:49.273Z,99.99
2016-10-01T06:23:49.308Z,99.99
2016-10-01T06:24:49.236Z,99.99
2016-10-01T06:25:49.284Z,99.99
